sensor_id;sensor_type;location;lat;lon;timestamp;P1;durP1;ratioP1;P2;durP2;ratioP2
17197;SDS011;8715;51.010;6.812;2024-03-06T00:01:00;775.90;;;737.25;;
17197;SDS011;8715;51.010;6.812;2024-03-06T00:03:45;778.88;;;740.05;;
17197;SDS011;8715;51.010;6.812;2024-03-06T00:06:30;777.97;;;739.35;;
17197;SDS011;8715;51.010;6.812;2024-03-06T00:09:15;776.47;;;737.70;;
17197;SDS011;8715;51.010;6.812;2024-03-06T00:12:00;768.03;;;729.67;;
17197;SDS011;8715;51.010;6.812;2024-03-06T00:14:46;784.58;;;745.50;;
17197;SDS011;8715;51.010;6.812;2024-03-06T00:17:31;773.53;;;735.10;;
17197;SDS011;8715;51.010;6.812;2024-03-06T00:20:16;772.10;;;734.17;;
17197;SDS011;8715;51.010;6.812;2024-03-06T00:23:01;768.00;;;730.45;;
17197;SDS011;8715;51.010;6.812;2024-03-06T00:25:46;779.90;;;741.92;;
17197;SDS011;8715;51.010;6.812;2024-03-06T00:28:31;774.45;;;736.35;;
17197;SDS011;8715;51.010;6.812;2024-03-06T00:31:18;764.45;;;727.20;;
17197;SDS011;8715;51.010;6.812;2024-03-06T00:34:03;767.08;;;729.75;;
17197;SDS011;8715;51.010;6.812;2024-03-06T00:36:48;766.97;;;730.05;;
17197;SDS011;8715;51.010;6.812;2024-03-06T00:39:33;763.90;;;727.25;;
17197;SDS011;8715;51.010;6.812;2024-03-06T00:42:18;770.80;;;733.47;;
17197;SDS011;8715;51.010;6.812;2024-03-06T00:45:03;768.00;;;730.80;;
17197;SDS011;8715;51.010;6.812;2024-03-06T00:47:50;765.05;;;727.95;;
17197;SDS011;8715;51.010;6.812;2024-03-06T00:50:35;763.20;;;726.42;;
17197;SDS011;8715;51.010;6.812;2024-03-06T00:53:20;767.17;;;729.85;;
17197;SDS011;8715;51.010;6.812;2024-03-06T00:56:06;773.67;;;735.75;;
17197;SDS011;8715;51.010;6.812;2024-03-06T00:58:51;769.65;;;732.38;;
17197;SDS011;8715;51.010;6.812;2024-03-06T01:01:36;768.17;;;730.03;;
17197;SDS011;8715;51.010;6.812;2024-03-06T01:04:22;755.97;;;719.13;;
17197;SDS011;8715;51.010;6.812;2024-03-06T01:07:07;758.78;;;722.15;;
17197;SDS011;8715;51.010;6.812;2024-03-06T01:09:52;771.05;;;733.05;;
17197;SDS011;8715;51.010;6.812;2024-03-06T01:12:37;759.83;;;722.83;;
17197;SDS011;8715;51.010;6.812;2024-03-06T01:15:23;752.45;;;716.67;;
17197;SDS011;8715;51.010;6.812;2024-03-06T01:18:07;761.63;;;724.85;;
17197;SDS011;8715;51.010;6.812;2024-03-06T01:20:54;764.45;;;727.95;;
17197;SDS011;8715;51.010;6.812;2024-03-06T01:23:39;763.25;;;726.13;;
17197;SDS011;8715;51.010;6.812;2024-03-06T01:26:24;753.20;;;716.50;;
17197;SDS011;8715;51.010;6.812;2024-03-06T01:29:09;755.42;;;718.58;;
17197;SDS011;8715;51.010;6.812;2024-03-06T01:31:54;751.53;;;715.25;;
17197;SDS011;8715;51.010;6.812;2024-03-06T01:34:39;749.60;;;713.72;;
17197;SDS011;8715;51.010;6.812;2024-03-06T01:37:26;753.63;;;717.78;;
17197;SDS011;8715;51.010;6.812;2024-03-06T01:40:12;757.63;;;721.03;;
17197;SDS011;8715;51.010;6.812;2024-03-06T01:42:57;746.63;;;712.20;;
17197;SDS011;8715;51.010;6.812;2024-03-06T01:45:42;757.65;;;720.42;;
17197;SDS011;8715;51.010;6.812;2024-03-06T01:48:27;753.40;;;716.78;;
17197;SDS011;8715;51.010;6.812;2024-03-06T01:51:12;771.10;;;720.20;;
17197;SDS011;8715;51.010;6.812;2024-03-06T01:54:00;756.70;;;721.60;;
17197;SDS011;8715;51.010;6.812;2024-03-06T01:56:48;741.42;;;707.50;;
17197;SDS011;8715;51.010;6.812;2024-03-06T01:59:33;736.40;;;703.17;;
17197;SDS011;8715;51.010;6.812;2024-03-06T02:02:18;730.38;;;697.20;;
17197;SDS011;8715;51.010;6.812;2024-03-06T02:05:03;727.33;;;694.58;;
17197;SDS011;8715;51.010;6.812;2024-03-06T02:07:48;732.60;;;697.20;;
17197;SDS011;8715;51.010;6.812;2024-03-06T02:10:35;732.67;;;698.78;;
17197;SDS011;8715;51.010;6.812;2024-03-06T02:13:20;729.58;;;696.03;;
17197;SDS011;8715;51.010;6.812;2024-03-06T02:16:05;734.22;;;698.47;;
17197;SDS011;8715;51.010;6.812;2024-03-06T02:18:51;733.67;;;697.75;;
17197;SDS011;8715;51.010;6.812;2024-03-06T02:21:37;728.35;;;692.50;;
17197;SDS011;8715;51.010;6.812;2024-03-06T02:24:22;747.13;;;711.33;;
17197;SDS011;8715;51.010;6.812;2024-03-06T02:27:07;736.78;;;703.17;;
17197;SDS011;8715;51.010;6.812;2024-03-06T02:29:52;744.40;;;709.70;;
17197;SDS011;8715;51.010;6.812;2024-03-06T02:32:37;730.75;;;697.25;;
17197;SDS011;8715;51.010;6.812;2024-03-06T02:35:22;737.45;;;702.85;;
17197;SDS011;8715;51.010;6.812;2024-03-06T02:38:08;738.67;;;703.85;;
17197;SDS011;8715;51.010;6.812;2024-03-06T02:40:53;739.33;;;703.83;;
17197;SDS011;8715;51.010;6.812;2024-03-06T02:43:38;721.42;;;688.00;;
17197;SDS011;8715;51.010;6.812;2024-03-06T02:46:23;738.88;;;704.90;;
17197;SDS011;8715;51.010;6.812;2024-03-06T02:49:08;726.78;;;692.95;;
17197;SDS011;8715;51.010;6.812;2024-03-06T02:51:53;736.78;;;702.60;;
17197;SDS011;8715;51.010;6.812;2024-03-06T02:54:41;737.90;;;703.72;;
17197;SDS011;8715;51.010;6.812;2024-03-06T02:57:27;726.58;;;693.17;;
17197;SDS011;8715;51.010;6.812;2024-03-06T03:00:12;734.15;;;700.63;;
17197;SDS011;8715;51.010;6.812;2024-03-06T03:02:57;721.78;;;684.20;;
17197;SDS011;8715;51.010;6.812;2024-03-06T03:05:42;716.60;;;683.33;;
17197;SDS011;8715;51.010;6.812;2024-03-06T03:08:27;707.60;;;676.40;;
17197;SDS011;8715;51.010;6.812;2024-03-06T03:11:14;725.67;;;693.33;;
17197;SDS011;8715;51.010;6.812;2024-03-06T03:13:59;712.75;;;681.33;;
17197;SDS011;8715;51.010;6.812;2024-03-06T03:16:44;711.00;;;677.42;;
17197;SDS011;8715;51.010;6.812;2024-03-06T03:19:29;718.28;;;686.13;;
17197;SDS011;8715;51.010;6.812;2024-03-06T03:22:14;709.38;;;677.75;;
17197;SDS011;8715;51.010;6.812;2024-03-06T03:24:59;706.17;;;673.90;;
17197;SDS011;8715;51.010;6.812;2024-03-06T03:27:46;713.83;;;682.17;;
17197;SDS011;8715;51.010;6.812;2024-03-06T03:30:30;704.88;;;671.97;;
17197;SDS011;8715;51.010;6.812;2024-03-06T03:33:16;702.95;;;671.80;;
17197;SDS011;8715;51.010;6.812;2024-03-06T03:36:01;706.13;;;674.67;;
17197;SDS011;8715;51.010;6.812;2024-03-06T03:38:46;704.78;;;673.28;;
17197;SDS011;8715;51.010;6.812;2024-03-06T03:41:32;714.92;;;682.97;;
17197;SDS011;8715;51.010;6.812;2024-03-06T03:44:18;702.20;;;670.45;;
17197;SDS011;8715;51.010;6.812;2024-03-06T03:47:04;717.92;;;685.53;;
17197;SDS011;8715;51.010;6.812;2024-03-06T03:49:49;723.42;;;690.55;;
17197;SDS011;8715;51.010;6.812;2024-03-06T03:52:33;724.35;;;691.53;;
17197;SDS011;8715;51.010;6.812;2024-03-06T03:55:19;715.92;;;683.90;;
17197;SDS011;8715;51.010;6.812;2024-03-06T03:58:04;715.35;;;683.05;;
17197;SDS011;8715;51.010;6.812;2024-03-06T04:00:52;736.75;;;701.35;;
17197;SDS011;8715;51.010;6.812;2024-03-06T04:03:38;725.22;;;692.30;;
17197;SDS011;8715;51.010;6.812;2024-03-06T04:06:24;727.30;;;694.42;;
17197;SDS011;8715;51.010;6.812;2024-03-06T04:09:09;713.85;;;681.78;;
17197;SDS011;8715;51.010;6.812;2024-03-06T04:11:54;718.70;;;685.60;;
17197;SDS011;8715;51.010;6.812;2024-03-06T04:14:39;715.45;;;682.70;;
17197;SDS011;8715;51.010;6.812;2024-03-06T04:17:26;725.97;;;692.25;;
17197;SDS011;8715;51.010;6.812;2024-03-06T04:20:11;723.70;;;690.22;;
17197;SDS011;8715;51.010;6.812;2024-03-06T04:22:56;716.75;;;683.33;;
17197;SDS011;8715;51.010;6.812;2024-03-06T04:25:41;723.00;;;689.05;;
17197;SDS011;8715;51.010;6.812;2024-03-06T04:28:26;716.15;;;681.97;;
17197;SDS011;8715;51.010;6.812;2024-03-06T04:31:11;729.30;;;694.70;;
17197;SDS011;8715;51.010;6.812;2024-03-06T04:33:58;728.33;;;692.72;;
17197;SDS011;8715;51.010;6.812;2024-03-06T04:36:43;736.33;;;701.45;;
17197;SDS011;8715;51.010;6.812;2024-03-06T04:39:28;733.85;;;698.85;;
17197;SDS011;8715;51.010;6.812;2024-03-06T04:42:13;726.33;;;691.25;;
17197;SDS011;8715;51.010;6.812;2024-03-06T04:44:58;725.42;;;690.92;;
17197;SDS011;8715;51.010;6.812;2024-03-06T04:47:43;740.45;;;705.15;;
17197;SDS011;8715;51.010;6.812;2024-03-06T04:50:30;733.33;;;697.55;;
17197;SDS011;8715;51.010;6.812;2024-03-06T04:53:15;735.33;;;700.38;;
17197;SDS011;8715;51.010;6.812;2024-03-06T04:56:00;744.63;;;709.00;;
17197;SDS011;8715;51.010;6.812;2024-03-06T04:58:45;737.75;;;702.25;;
17197;SDS011;8715;51.010;6.812;2024-03-06T05:01:30;739.10;;;703.70;;
17197;SDS011;8715;51.010;6.812;2024-03-06T05:04:15;748.58;;;713.67;;
17197;SDS011;8715;51.010;6.812;2024-03-06T05:07:02;733.85;;;699.30;;
17197;SDS011;8715;51.010;6.812;2024-03-06T05:09:47;737.38;;;703.35;;
17197;SDS011;8715;51.010;6.812;2024-03-06T05:12:32;734.83;;;700.63;;
17197;SDS011;8715;51.010;6.812;2024-03-06T05:15:18;753.10;;;716.67;;
17197;SDS011;8715;51.010;6.812;2024-03-06T05:18:03;759.33;;;723.28;;
17197;SDS011;8715;51.010;6.812;2024-03-06T05:20:48;756.85;;;721.28;;
17197;SDS011;8715;51.010;6.812;2024-03-06T05:23:34;747.65;;;712.35;;
17197;SDS011;8715;51.010;6.812;2024-03-06T05:26:20;744.00;;;708.88;;
17197;SDS011;8715;51.010;6.812;2024-03-06T05:29:05;760.95;;;724.80;;
17197;SDS011;8715;51.010;6.812;2024-03-06T05:31:50;749.28;;;714.20;;
17197;SDS011;8715;51.010;6.812;2024-03-06T05:34:35;742.65;;;707.67;;
17197;SDS011;8715;51.010;6.812;2024-03-06T05:37:20;757.30;;;721.28;;
17197;SDS011;8715;51.010;6.812;2024-03-06T05:40:07;758.17;;;722.05;;
17197;SDS011;8715;51.010;6.812;2024-03-06T05:42:53;749.28;;;714.00;;
17197;SDS011;8715;51.010;6.812;2024-03-06T05:45:37;740.22;;;705.65;;
17197;SDS011;8715;51.010;6.812;2024-03-06T05:48:23;745.13;;;709.90;;
17197;SDS011;8715;51.010;6.812;2024-03-06T05:51:08;750.78;;;715.33;;
17197;SDS011;8715;51.010;6.812;2024-03-06T05:53:54;742.58;;;707.78;;
17197;SDS011;8715;51.010;6.812;2024-03-06T05:56:40;759.75;;;723.80;;
17197;SDS011;8715;51.010;6.812;2024-03-06T05:59:25;753.10;;;717.60;;
17197;SDS011;8715;51.010;6.812;2024-03-06T06:02:10;752.08;;;716.92;;
17197;SDS011;8715;51.010;6.812;2024-03-06T06:04:55;750.72;;;715.67;;
17197;SDS011;8715;51.010;6.812;2024-03-06T06:07:40;752.30;;;717.10;;
17197;SDS011;8715;51.010;6.812;2024-03-06T06:10:25;739.72;;;705.60;;
17197;SDS011;8715;51.010;6.812;2024-03-06T06:13:12;759.63;;;724.30;;
17197;SDS011;8715;51.010;6.812;2024-03-06T06:15:58;738.08;;;704.33;;
17197;SDS011;8715;51.010;6.812;2024-03-06T06:18:43;753.80;;;719.22;;
17197;SDS011;8715;51.010;6.812;2024-03-06T06:21:28;747.53;;;713.58;;
17197;SDS011;8715;51.010;6.812;2024-03-06T06:24:13;747.55;;;713.03;;
17197;SDS011;8715;51.010;6.812;2024-03-06T06:26:58;751.25;;;716.38;;
17197;SDS011;8715;51.010;6.812;2024-03-06T06:29:45;750.85;;;716.38;;
17197;SDS011;8715;51.010;6.812;2024-03-06T06:32:30;748.20;;;713.67;;
17197;SDS011;8715;51.010;6.812;2024-03-06T06:35:15;745.45;;;710.75;;
17197;SDS011;8715;51.010;6.812;2024-03-06T06:38:00;741.75;;;707.80;;
17197;SDS011;8715;51.010;6.812;2024-03-06T06:40:45;757.50;;;722.33;;
17197;SDS011;8715;51.010;6.812;2024-03-06T06:43:30;753.55;;;718.78;;
17197;SDS011;8715;51.010;6.812;2024-03-06T06:46:17;740.50;;;706.67;;
17197;SDS011;8715;51.010;6.812;2024-03-06T06:49:02;733.70;;;700.50;;
17197;SDS011;8715;51.010;6.812;2024-03-06T06:51:47;748.22;;;714.05;;
17197;SDS011;8715;51.010;6.812;2024-03-06T06:54:33;745.30;;;711.25;;
17197;SDS011;8715;51.010;6.812;2024-03-06T06:57:18;744.20;;;710.45;;
17197;SDS011;8715;51.010;6.812;2024-03-06T07:00:04;742.13;;;708.30;;
17197;SDS011;8715;51.010;6.812;2024-03-06T07:02:56;733.70;;;700.35;;
17197;SDS011;8715;51.010;6.812;2024-03-06T07:05:42;745.53;;;711.78;;
17197;SDS011;8715;51.010;6.812;2024-03-06T07:08:27;757.38;;;722.42;;
17197;SDS011;8715;51.010;6.812;2024-03-06T07:11:12;746.28;;;712.45;;
17197;SDS011;8715;51.010;6.812;2024-03-06T07:13:57;747.45;;;713.58;;
17197;SDS011;8715;51.010;6.812;2024-03-06T07:16:42;758.05;;;723.00;;
17197;SDS011;8715;51.010;6.812;2024-03-06T07:19:29;753.03;;;718.08;;
17197;SDS011;8715;51.010;6.812;2024-03-06T07:22:14;741.88;;;707.60;;
17197;SDS011;8715;51.010;6.812;2024-03-06T07:25:00;750.03;;;715.20;;
17197;SDS011;8715;51.010;6.812;2024-03-06T07:27:45;754.88;;;719.65;;
17197;SDS011;8715;51.010;6.812;2024-03-06T07:30:31;762.30;;;726.63;;
17197;SDS011;8715;51.010;6.812;2024-03-06T07:33:16;767.15;;;730.58;;
17197;SDS011;8715;51.010;6.812;2024-03-06T07:36:03;763.97;;;727.67;;
17197;SDS011;8715;51.010;6.812;2024-03-06T07:38:48;753.15;;;718.05;;
17197;SDS011;8715;51.010;6.812;2024-03-06T07:41:33;763.78;;;728.10;;
17197;SDS011;8715;51.010;6.812;2024-03-06T07:44:19;763.55;;;727.72;;
17197;SDS011;8715;51.010;6.812;2024-03-06T07:47:05;765.53;;;729.30;;
17197;SDS011;8715;51.010;6.812;2024-03-06T07:49:50;767.05;;;731.08;;
17197;SDS011;8715;51.010;6.812;2024-03-06T07:52:37;756.10;;;720.63;;
17197;SDS011;8715;51.010;6.812;2024-03-06T07:55:22;764.40;;;728.42;;
17197;SDS011;8715;51.010;6.812;2024-03-06T07:58:07;766.65;;;730.85;;
17197;SDS011;8715;51.010;6.812;2024-03-06T08:00:53;766.92;;;731.22;;
17197;SDS011;8715;51.010;6.812;2024-03-06T08:03:39;771.72;;;735.30;;
17197;SDS011;8715;51.010;6.812;2024-03-06T08:06:27;770.97;;;734.53;;
17197;SDS011;8715;51.010;6.812;2024-03-06T08:09:14;775.45;;;738.47;;
17197;SDS011;8715;51.010;6.812;2024-03-06T08:12:00;777.42;;;740.15;;
17197;SDS011;8715;51.010;6.812;2024-03-06T08:14:45;775.58;;;738.17;;
17197;SDS011;8715;51.010;6.812;2024-03-06T08:17:30;791.92;;;753.17;;
17197;SDS011;8715;51.010;6.812;2024-03-06T08:20:15;786.42;;;747.58;;
17197;SDS011;8715;51.010;6.812;2024-03-06T08:23:01;784.90;;;746.88;;
17197;SDS011;8715;51.010;6.812;2024-03-06T08:25:47;792.65;;;753.78;;
17197;SDS011;8715;51.010;6.812;2024-03-06T08:28:32;783.70;;;745.88;;
17197;SDS011;8715;51.010;6.812;2024-03-06T08:31:17;799.42;;;760.33;;
17197;SDS011;8715;51.010;6.812;2024-03-06T08:34:02;783.30;;;744.90;;
17197;SDS011;8715;51.010;6.812;2024-03-06T08:36:47;792.58;;;753.40;;
17197;SDS011;8715;51.010;6.812;2024-03-06T08:39:32;795.35;;;756.15;;
17197;SDS011;8715;51.010;6.812;2024-03-06T08:42:19;791.13;;;752.03;;
17197;SDS011;8715;51.010;6.812;2024-03-06T08:45:04;798.45;;;758.80;;
17197;SDS011;8715;51.010;6.812;2024-03-06T08:47:49;796.20;;;756.28;;
17197;SDS011;8715;51.010;6.812;2024-03-06T08:50:36;800.00;;;759.67;;
17197;SDS011;8715;51.010;6.812;2024-03-06T08:53:21;821.00;;;778.42;;
17197;SDS011;8715;51.010;6.812;2024-03-06T08:56:06;797.88;;;757.17;;
17197;SDS011;8715;51.010;6.812;2024-03-06T08:58:52;807.38;;;765.50;;
17197;SDS011;8715;51.010;6.812;2024-03-06T09:01:37;813.33;;;770.40;;
17197;SDS011;8715;51.010;6.812;2024-03-06T09:04:22;812.10;;;769.70;;
17197;SDS011;8715;51.010;6.812;2024-03-06T09:07:07;818.05;;;774.92;;
17197;SDS011;8715;51.010;6.812;2024-03-06T09:09:52;823.42;;;779.92;;
17197;SDS011;8715;51.010;6.812;2024-03-06T09:12:37;812.67;;;769.95;;
17197;SDS011;8715;51.010;6.812;2024-03-06T09:15:24;810.88;;;768.22;;
17197;SDS011;8715;51.010;6.812;2024-03-06T09:18:09;825.75;;;781.53;;
17197;SDS011;8715;51.010;6.812;2024-03-06T09:20:54;832.65;;;786.70;;
17197;SDS011;8715;51.010;6.812;2024-03-06T09:23:39;826.47;;;781.47;;
17197;SDS011;8715;51.010;6.812;2024-03-06T09:26:25;827.83;;;782.83;;
17197;SDS011;8715;51.010;6.812;2024-03-06T09:29:10;821.25;;;776.97;;
17197;SDS011;8715;51.010;6.812;2024-03-06T09:31:56;825.10;;;780.20;;
17197;SDS011;8715;51.010;6.812;2024-03-06T09:34:43;815.55;;;771.45;;
17197;SDS011;8715;51.010;6.812;2024-03-06T09:37:28;823.10;;;778.33;;
17197;SDS011;8715;51.010;6.812;2024-03-06T09:40:19;829.03;;;783.33;;
17197;SDS011;8715;51.010;6.812;2024-03-06T09:43:04;825.85;;;779.47;;
17197;SDS011;8715;51.010;6.812;2024-03-06T09:45:50;826.55;;;780.78;;
17197;SDS011;8715;51.010;6.812;2024-03-06T09:48:37;828.22;;;782.53;;
17197;SDS011;8715;51.010;6.812;2024-03-06T09:51:29;827.90;;;781.95;;
17197;SDS011;8715;51.010;6.812;2024-03-06T09:54:14;822.38;;;777.08;;
17197;SDS011;8715;51.010;6.812;2024-03-06T09:56:59;837.63;;;791.33;;
17197;SDS011;8715;51.010;6.812;2024-03-06T09:59:45;826.17;;;780.25;;
17197;SDS011;8715;51.010;6.812;2024-03-06T10:02:31;825.20;;;779.83;;
17197;SDS011;8715;51.010;6.812;2024-03-06T10:05:21;820.47;;;775.55;;
17197;SDS011;8715;51.010;6.812;2024-03-06T10:08:07;827.83;;;781.42;;
17197;SDS011;8715;51.010;6.812;2024-03-06T10:10:52;825.13;;;779.85;;
17197;SDS011;8715;51.010;6.812;2024-03-06T10:13:38;821.17;;;776.50;;
17197;SDS011;8715;51.010;6.812;2024-03-06T10:16:23;818.60;;;774.15;;
17197;SDS011;8715;51.010;6.812;2024-03-06T10:19:17;818.97;;;774.45;;
17197;SDS011;8715;51.010;6.812;2024-03-06T10:22:06;823.10;;;778.25;;
17197;SDS011;8715;51.010;6.812;2024-03-06T10:24:54;825.50;;;780.13;;
17197;SDS011;8715;51.010;6.812;2024-03-06T10:27:40;831.97;;;785.50;;
17197;SDS011;8715;51.010;6.812;2024-03-06T10:30:25;836.42;;;789.35;;
17197;SDS011;8715;51.010;6.812;2024-03-06T10:33:10;827.38;;;781.05;;
17197;SDS011;8715;51.010;6.812;2024-03-06T10:35:55;823.60;;;778.15;;
17197;SDS011;8715;51.010;6.812;2024-03-06T10:38:42;833.42;;;786.80;;
17197;SDS011;8715;51.010;6.812;2024-03-06T10:41:28;825.38;;;778.45;;
17197;SDS011;8715;51.010;6.812;2024-03-06T10:44:17;824.00;;;777.60;;
17197;SDS011;8715;51.010;6.812;2024-03-06T10:47:06;835.25;;;787.35;;
17197;SDS011;8715;51.010;6.812;2024-03-06T10:49:54;829.90;;;782.63;;
17197;SDS011;8715;51.010;6.812;2024-03-06T10:52:40;840.03;;;791.63;;
17197;SDS011;8715;51.010;6.812;2024-03-06T10:55:27;847.13;;;797.17;;
17197;SDS011;8715;51.010;6.812;2024-03-06T10:58:12;836.17;;;786.85;;
17197;SDS011;8715;51.010;6.812;2024-03-06T11:00:57;845.83;;;796.08;;
17197;SDS011;8715;51.010;6.812;2024-03-06T11:03:42;834.78;;;785.72;;
17197;SDS011;8715;51.010;6.812;2024-03-06T11:06:28;846.70;;;796.67;;
17197;SDS011;8715;51.010;6.812;2024-03-06T11:09:13;836.45;;;787.95;;
17197;SDS011;8715;51.010;6.812;2024-03-06T11:12:01;835.42;;;787.05;;
17197;SDS011;8715;51.010;6.812;2024-03-06T11:14:48;836.60;;;787.97;;
17197;SDS011;8715;51.010;6.812;2024-03-06T11:17:35;839.65;;;790.92;;
17197;SDS011;8715;51.010;6.812;2024-03-06T11:20:21;835.45;;;787.28;;
17197;SDS011;8715;51.010;6.812;2024-03-06T11:23:09;833.00;;;785.05;;
17197;SDS011;8715;51.010;6.812;2024-03-06T11:25:59;838.47;;;789.95;;
17197;SDS011;8715;51.010;6.812;2024-03-06T11:28:48;835.70;;;787.17;;
17197;SDS011;8715;51.010;6.812;2024-03-06T11:31:34;832.33;;;784.28;;
17197;SDS011;8715;51.010;6.812;2024-03-06T11:34:21;835.25;;;787.30;;
17197;SDS011;8715;51.010;6.812;2024-03-06T11:37:07;825.53;;;778.38;;
17197;SDS011;8715;51.010;6.812;2024-03-06T11:39:59;833.58;;;785.58;;
17197;SDS011;8715;51.010;6.812;2024-03-06T11:42:44;835.47;;;787.58;;
17197;SDS011;8715;51.010;6.812;2024-03-06T11:45:33;834.70;;;786.42;;
17197;SDS011;8715;51.010;6.812;2024-03-06T11:48:28;826.10;;;778.72;;
17197;SDS011;8715;51.010;6.812;2024-03-06T11:51:12;829.13;;;781.85;;
17197;SDS011;8715;51.010;6.812;2024-03-06T11:53:58;825.10;;;777.83;;
17197;SDS011;8715;51.010;6.812;2024-03-06T11:56:44;827.33;;;780.10;;
17197;SDS011;8715;51.010;6.812;2024-03-06T11:59:31;826.42;;;779.35;;
17197;SDS011;8715;51.010;6.812;2024-03-06T12:02:17;838.08;;;790.10;;
17197;SDS011;8715;51.010;6.812;2024-03-06T12:05:02;817.80;;;771.42;;
17197;SDS011;8715;51.010;6.812;2024-03-06T12:07:49;835.45;;;788.00;;
17197;SDS011;8715;51.010;6.812;2024-03-06T12:10:36;827.78;;;780.22;;
17197;SDS011;8715;51.010;6.812;2024-03-06T12:13:21;824.67;;;778.03;;
17197;SDS011;8715;51.010;6.812;2024-03-06T12:16:06;841.47;;;792.47;;
17197;SDS011;8715;51.010;6.812;2024-03-06T12:18:56;841.72;;;792.78;;
17197;SDS011;8715;51.010;6.812;2024-03-06T12:21:42;839.33;;;790.45;;
17197;SDS011;8715;51.010;6.812;2024-03-06T12:24:27;842.83;;;793.60;;
17197;SDS011;8715;51.010;6.812;2024-03-06T12:27:12;830.88;;;783.17;;
17197;SDS011;8715;51.010;6.812;2024-03-06T12:29:57;830.88;;;782.92;;
17197;SDS011;8715;51.010;6.812;2024-03-06T12:32:42;841.63;;;793.00;;
17197;SDS011;8715;51.010;6.812;2024-03-06T12:35:29;834.33;;;786.47;;
17197;SDS011;8715;51.010;6.812;2024-03-06T12:38:14;844.13;;;795.28;;
17197;SDS011;8715;51.010;6.812;2024-03-06T12:40:59;836.97;;;788.65;;
17197;SDS011;8715;51.010;6.812;2024-03-06T12:43:44;844.20;;;795.13;;
17197;SDS011;8715;51.010;6.812;2024-03-06T12:46:29;837.85;;;789.40;;
17197;SDS011;8715;51.010;6.812;2024-03-06T12:49:14;844.28;;;794.67;;
17197;SDS011;8715;51.010;6.812;2024-03-06T12:52:01;844.53;;;794.28;;
17197;SDS011;8715;51.010;6.812;2024-03-06T12:54:48;846.10;;;796.28;;
17197;SDS011;8715;51.010;6.812;2024-03-06T12:57:33;840.10;;;790.88;;
17197;SDS011;8715;51.010;6.812;2024-03-06T13:00:18;837.40;;;788.28;;
17197;SDS011;8715;51.010;6.812;2024-03-06T13:03:04;846.40;;;796.42;;
17197;SDS011;8715;51.010;6.812;2024-03-06T13:05:49;835.58;;;786.92;;
17197;SDS011;8715;51.010;6.812;2024-03-06T13:08:36;846.67;;;796.95;;
17197;SDS011;8715;51.010;6.812;2024-03-06T13:11:21;851.30;;;801.90;;
17197;SDS011;8715;51.010;6.812;2024-03-06T13:14:06;842.95;;;793.85;;
17197;SDS011;8715;51.010;6.812;2024-03-06T13:16:54;848.88;;;798.78;;
17197;SDS011;8715;51.010;6.812;2024-03-06T13:19:39;851.35;;;801.05;;
17197;SDS011;8715;51.010;6.812;2024-03-06T13:22:24;853.00;;;802.35;;
17197;SDS011;8715;51.010;6.812;2024-03-06T13:25:11;843.25;;;793.83;;
17197;SDS011;8715;51.010;6.812;2024-03-06T13:27:56;850.47;;;800.38;;
17197;SDS011;8715;51.010;6.812;2024-03-06T13:30:41;843.65;;;794.40;;
17197;SDS011;8715;51.010;6.812;2024-03-06T13:33:26;838.15;;;789.50;;
17197;SDS011;8715;51.010;6.812;2024-03-06T13:36:11;848.13;;;798.85;;
17197;SDS011;8715;51.010;6.812;2024-03-06T13:38:56;847.78;;;798.33;;
17197;SDS011;8715;51.010;6.812;2024-03-06T13:41:43;837.75;;;789.22;;
17197;SDS011;8715;51.010;6.812;2024-03-06T13:44:28;843.25;;;794.10;;
17197;SDS011;8715;51.010;6.812;2024-03-06T13:47:14;848.03;;;798.50;;
17197;SDS011;8715;51.010;6.812;2024-03-06T13:50:00;847.47;;;797.70;;
17197;SDS011;8715;51.010;6.812;2024-03-06T13:52:45;844.03;;;794.60;;
17197;SDS011;8715;51.010;6.812;2024-03-06T13:55:30;847.42;;;797.47;;
17197;SDS011;8715;51.010;6.812;2024-03-06T13:58:18;848.67;;;799.00;;
17197;SDS011;8715;51.010;6.812;2024-03-06T14:01:03;852.90;;;802.38;;
17197;SDS011;8715;51.010;6.812;2024-03-06T14:03:49;848.05;;;798.38;;
17197;SDS011;8715;51.010;6.812;2024-03-06T14:06:34;852.65;;;802.33;;
17197;SDS011;8715;51.010;6.812;2024-03-06T14:09:19;851.50;;;800.92;;
17197;SDS011;8715;51.010;6.812;2024-03-06T14:12:07;853.30;;;803.22;;
17197;SDS011;8715;51.010;6.812;2024-03-06T14:14:54;841.55;;;792.17;;
17197;SDS011;8715;51.010;6.812;2024-03-06T14:17:39;845.80;;;796.22;;
17197;SDS011;8715;51.010;6.812;2024-03-06T14:20:24;843.47;;;794.30;;
17197;SDS011;8715;51.010;6.812;2024-03-06T14:23:09;848.55;;;798.58;;
17197;SDS011;8715;51.010;6.812;2024-03-06T14:25:54;847.85;;;798.50;;
17197;SDS011;8715;51.010;6.812;2024-03-06T14:28:39;853.47;;;803.60;;
17197;SDS011;8715;51.010;6.812;2024-03-06T14:31:26;847.63;;;798.10;;
17197;SDS011;8715;51.010;6.812;2024-03-06T14:34:11;847.30;;;797.75;;
17197;SDS011;8715;51.010;6.812;2024-03-06T14:36:57;846.30;;;797.28;;
17197;SDS011;8715;51.010;6.812;2024-03-06T14:39:42;851.08;;;801.30;;
17197;SDS011;8715;51.010;6.812;2024-03-06T14:42:28;839.08;;;790.65;;
17197;SDS011;8715;51.010;6.812;2024-03-06T14:45:12;851.42;;;801.63;;
17197;SDS011;8715;51.010;6.812;2024-03-06T14:47:59;850.30;;;800.47;;
17197;SDS011;8715;51.010;6.812;2024-03-06T14:50:44;851.33;;;801.83;;
17197;SDS011;8715;51.010;6.812;2024-03-06T14:53:29;848.63;;;799.17;;
17197;SDS011;8715;51.010;6.812;2024-03-06T14:56:14;850.55;;;800.95;;
17197;SDS011;8715;51.010;6.812;2024-03-06T14:58:59;849.28;;;799.72;;
17197;SDS011;8715;51.010;6.812;2024-03-06T15:01:44;844.58;;;795.08;;
17197;SDS011;8715;51.010;6.812;2024-03-06T15:04:32;852.28;;;802.35;;
17197;SDS011;8715;51.010;6.812;2024-03-06T15:07:16;850.25;;;800.28;;
17197;SDS011;8715;51.010;6.812;2024-03-06T15:10:02;845.35;;;795.78;;
17197;SDS011;8715;51.010;6.812;2024-03-06T15:12:47;846.42;;;796.70;;
17197;SDS011;8715;51.010;6.812;2024-03-06T15:15:32;851.08;;;800.85;;
17197;SDS011;8715;51.010;6.812;2024-03-06T15:18:17;848.75;;;799.00;;
17197;SDS011;8715;51.010;6.812;2024-03-06T15:21:03;850.63;;;800.72;;
17197;SDS011;8715;51.010;6.812;2024-03-06T15:23:49;850.25;;;800.53;;
17197;SDS011;8715;51.010;6.812;2024-03-06T15:26:36;840.78;;;792.55;;
17197;SDS011;8715;51.010;6.812;2024-03-06T15:29:21;847.97;;;798.40;;
17197;SDS011;8715;51.010;6.812;2024-03-06T15:32:06;841.50;;;793.03;;
17197;SDS011;8715;51.010;6.812;2024-03-06T15:34:51;844.42;;;795.20;;
17197;SDS011;8715;51.010;6.812;2024-03-06T15:37:41;845.75;;;796.72;;
17197;SDS011;8715;51.010;6.812;2024-03-06T15:40:26;845.88;;;796.88;;
17197;SDS011;8715;51.010;6.812;2024-03-06T15:43:12;849.75;;;800.13;;
17197;SDS011;8715;51.010;6.812;2024-03-06T15:45:57;839.67;;;790.78;;
17197;SDS011;8715;51.010;6.812;2024-03-06T15:48:42;850.80;;;800.97;;
17197;SDS011;8715;51.010;6.812;2024-03-06T15:51:27;848.45;;;798.40;;
17197;SDS011;8715;51.010;6.812;2024-03-06T15:54:13;839.58;;;790.75;;